Flight Track Log - Related Links

Times and Time Zones

All times are in EDT time to prevent confusion due to time zone crossing. See the EJA658 flight status page for this flight to view local times or setup timezone preferences in your user account.

Time Position Orientation Groundspeed Altitude Reporting Facility
EDT Latitude Longitude Course Direction KTS MPH feet Rate Location/Type
Wed 07:05:38 AM 43.6458 -70.4375 247° West 211 243 6,500  Level Boston Center
Wed 07:06:38 AM 43.6283 -70.5183 253° West 224 258 10,500 4,000 Climbing Boston Center
Wed 07:07:38 AM 43.6053 -70.6281 254° West 268 308 14,500 3,500 Climbing Boston Center
Wed 07:08:38 AM 43.5839 -70.7289 254° West 296 341 17,500 2,909 Climbing Boston Center
Wed 07:09:50 AM 43.5567 -70.8700 255° West 305 351 20,900 2,909 Climbing Boston Center
Wed 07:10:00 AM 43.4026 -71.0250 247° West  Level FlightAware Approximate
Wed 07:10:50 AM 43.5311 -70.9939 254° West 325 374 23,900  Level Boston Center
Wed 07:11:50 AM 43.4997 -71.1378 253° West 359 413 24,000 50 Climbing Boston Center
Wed 07:12:50 AM 43.4617 -71.2989 252° West 395 455 24,000  Level Boston Center
Wed 07:13:50 AM 43.4297 -71.4422 253° West 400 460 24,000  Level Boston Center
Wed 07:14:50 AM 43.3975 -71.5914 253° West 400 460 24,000  Level Boston Center
Wed 07:15:50 AM 43.3653 -71.7375 253° West 400 460 24,000  Level Boston Center
Wed 07:16:50 AM 43.3328 -71.8864 253° West 405 466 24,000  Level Boston Center
Wed 07:17:50 AM 43.2978 -72.0378 252° West 405 466 24,000  Level Boston Center
Wed 07:18:50 AM 43.2650 -72.1864 253° West 405 466 24,000  Level Boston Center
Wed 07:19:50 AM 43.2319 -72.3375 253° West 405 466 24,000  Level Boston Center
Wed 07:20:50 AM 43.1944 -72.4914 252° West 411 473 24,000  Level Boston Center
Wed 07:21:50 AM 43.1589 -72.6422 252° West 417 480 24,000  Level Boston Center
Wed 07:22:50 AM 43.1272 -72.7758 252° West 417 480 24,000  Level Boston Center
Wed 07:23:50 AM 43.0914 -72.9264 252° West 417 480 24,000  Level Boston Center
Wed 07:24:50 AM 43.0569 -73.0964 255° West 422 486 24,000  Level Boston Center
Wed 07:25:50 AM 43.0272 -73.2156 251° West 422 486 24,000 -50 Level Boston Center
Wed 07:26:50 AM 42.9675 -73.3878 245° Southwest 422 486 23,900 -450 Descending Boston Center
Wed 07:27:50 AM 42.9017 -73.5144 235° Southwest 420 483 23,100 -850 Descending Boston Center
Wed 07:28:50 AM 42.8114 -73.6033 216° Southwest 410 472 22,200 -950 Descending Boston Center
Wed 07:29:50 AM 42.6961 -73.6464 195° South 404 465 21,200 -1,000 Descending Boston Center
Wed 07:30:50 AM 42.5872 -73.6894 196° South 410 472 20,200 -1,050 Descending Boston Center
Wed 07:31:50 AM 42.4786 -73.7294 195° South 410 472 19,100 -1,150 Descending Boston Center
Wed 07:32:50 AM 42.3822 -73.7611 194° South 397 457 17,900 -1,000 Descending Boston Center
Wed 07:33:50 AM 42.2692 -73.8064 197° South 397 457 17,100 -950 Descending Boston Center
Wed 07:34:50 AM 42.1733 -73.8128 183° South 387 445 16,000 -1,200 Descending Boston Center
Wed 07:35:50 AM 42.0647 -73.8161 181° South 376 433 14,700 -950 Descending Boston Center
Wed 07:36:50 AM 41.9753 -73.8169 180° South 365 420 14,100 -300 Descending Boston Center
Wed 07:37:50 AM 41.8647 -73.8200 181° South 365 420 14,100 -150 Level Boston Center
Wed 07:38:50 AM 41.7769 -73.8292 184° South 365 420 13,800 -1,500 Descending Boston Center
Wed 07:39:50 AM 41.6706 -73.8408 185° South 360 414 11,100 -2,431 Descending Boston Center
Wed 07:40:46 AM 41.5833 -73.8500 184° South 303 349 9,100 -1,964 Descending New York TRACON
Wed 07:41:40 AM 41.5167 -73.8500 180° South 289 333 7,500 -1,632 Descending New York TRACON
Wed 07:42:40 AM 41.4500 -73.8667 191° South 267 307 6,000 -1,200 Descending New York TRACON
Wed 07:43:40 AM 41.3667 -73.8667 180° South 279 321 5,100 -842 Descending New York TRACON
Wed 07:44:34 AM 41.3167 -73.8500 166° South 257 296 4,400 -833 Descending New York TRACON
Wed 07:45:28 AM 41.2833 -73.7667 118° Southeast 255 293 3,600 -722 Descending New York TRACON
Wed 07:46:22 AM 41.2500 -73.7000 124° Southeast 254 292 3,100 -263 Descending New York TRACON
Wed 07:47:22 AM 41.2000 -73.6500 143° Southeast 240 276 3,100 -50 Level New York TRACON
Wed 07:48:22 AM 41.1500 -73.6000 143° Southeast 221 254 3,000  Descending New York TRACON
Wed 07:49:16 AM 41.1000 -73.5833 166° South 203 234 3,100 53 Climbing New York TRACON
Wed 07:50:16 AM 41.0500 -73.5833 180° South 198 228 3,100 -150 Level New York TRACON
Wed 07:51:16 AM 41.0000 -73.6167 207° Southwest 198 228 2,800 -526 Descending New York TRACON
Wed 07:52:10 AM 41.0000 -73.6667 270° West 175 201 2,100 -947 Descending New York TRACON
Wed 07:53:10 AM 41.0333 -73.6833 339° North 125 144 1,000 -1,100 Descending New York TRACON

Login

Don't have an account? Register now (free) for customized features, flight alerts, and more!